Time;durP1;ratioP1;P1;durP2;ratioP2;P2;SDS_P1;SDS_P2;PMS_P1;PMS_P2;Temp;Humidity;BMP_temperature;BMP_pressure;BME280_temperature;BME280_humidity;BME280_pressure;Samples;Min_cycle;Max_cycle;Signal;HPM_P1;HPM_P2
2022/07/23 00:00:50;;;;;;;8.68;5.97;;;;;;;18.48;66.57;101122.22;7397824;19;20019;-70
2022/07/23 00:03:21;;;;;;;6.00;5.40;;;;;;;18.45;66.91;101137.44;7399590;19;20015;-70
2022/07/23 00:05:50;;;;;;;8.10;6.07;;;;;;;18.40;66.79;101135.88;7399741;19;20010;-70
2022/07/23 00:08:18;;;;;;;9.63;5.93;;;;;;;18.35;66.92;101137.91;7398280;19;20368;-69
2022/07/23 00:10:47;;;;;;;6.65;5.97;;;;;;;18.31;66.89;101122.19;7399893;19;20022;-69
2022/07/23 00:13:15;;;;;;;7.70;6.13;;;;;;;18.26;67.30;101129.50;7399708;19;20022;-69
2022/07/23 00:15:44;;;;;;;7.07;5.40;;;;;;;18.22;67.40;101126.13;7399793;19;20031;-70
2022/07/23 00:18:13;;;;;;;7.25;5.72;;;;;;;18.19;67.58;101121.00;7397323;19;20023;-70
2022/07/23 00:20:44;;;;;;;7.40;5.75;;;;;;;18.15;67.80;101117.63;7395530;19;20023;-70
2022/07/23 00:23:12;;;;;;;6.53;5.82;;;;;;;18.15;67.94;101119.41;7396935;19;20014;-70
2022/07/23 00:25:41;;;;;;;6.20;5.47;;;;;;;18.09;67.78;101111.75;7399729;19;20014;-70
2022/07/23 00:28:09;;;;;;;6.85;6.20;;;;;;;18.11;68.12;101120.47;7397973;19;20018;-69
2022/07/23 00:30:38;;;;;;;7.57;6.32;;;;;;;18.09;68.03;101122.38;7399398;19;20011;-70
2022/07/23 00:33:08;;;;;;;7.90;7.07;;;;;;;18.06;67.98;101107.44;7398970;19;20011;-70
2022/07/23 00:35:40;;;;;;;7.88;6.00;;;;;;;18.05;68.19;101098.59;7397486;19;20015;-70
2022/07/23 00:38:12;;;;;;;7.90;5.70;;;;;;;18.05;67.95;101111.03;7397758;19;20018;-70
2022/07/23 00:40:41;;;;;;;6.65;6.05;;;;;;;18.03;68.00;101119.06;7397628;19;20031;-70
2022/07/23 00:43:10;;;;;;;8.32;6.43;;;;;;;18.00;68.11;101110.38;7398901;19;20031;-70
2022/07/23 00:45:39;;;;;;;6.47;5.88;;;;;;;17.97;68.25;101106.09;7398926;19;20030;-70
2022/07/23 00:48:08;;;;;;;8.15;5.90;;;;;;;17.94;68.61;101098.25;7396964;19;20481;-70
2022/07/23 00:50:36;;;;;;;8.27;6.47;;;;;;;17.92;68.44;101095.63;7398731;19;20022;-69
2022/07/23 00:53:05;;;;;;;7.53;6.38;;;;;;;17.90;68.35;101109.91;7396470;19;20028;-69
2022/07/23 00:55:36;;;;;;;8.80;6.75;;;;;;;17.86;68.68;101118.97;7398502;19;20018;-70
2022/07/23 00:58:05;;;;;;;7.20;6.10;;;;;;;17.83;68.70;101113.78;7396797;19;20517;-70
2022/07/23 01:00:34;;;;;;;7.88;6.88;;;;;;;17.79;68.53;101106.91;7396806;19;20011;-70
2022/07/23 01:03:02;;;;;;;7.22;6.30;;;;;;;17.73;68.44;101105.38;7395874;19;20376;-70
2022/07/23 01:05:31;;;;;;;8.00;6.63;;;;;;;17.70;68.99;101093.09;7396116;19;20014;-70
2022/07/23 01:07:59;;;;;;;8.55;6.97;;;;;;;17.66;68.61;101083.56;7396901;19;20023;-70
2022/07/23 01:10:34;;;;;;;8.23;6.57;;;;;;;17.61;68.94;101077.63;7397987;19;20026;-70
2022/07/23 01:13:08;;;;;;;7.72;6.45;;;;;;;17.58;68.85;101075.13;7399200;19;20014;-69
2022/07/23 01:15:38;;;;;;;8.70;6.53;;;;;;;17.54;68.88;101070.88;7398164;19;20015;-70
2022/07/23 01:18:08;;;;;;;7.97;7.10;;;;;;;17.51;68.96;101071.03;7396492;19;20494;-70
2022/07/23 01:20:37;;;;;;;10.52;6.38;;;;;;;17.47;69.15;101062.34;7398431;19;20039;-70
2022/07/23 01:23:08;;;;;;;8.05;6.80;;;;;;;17.45;69.28;101063.34;7398769;19;20423;-70
2022/07/23 01:25:37;;;;;;;8.82;7.50;;;;;;;17.46;69.29;101068.56;7397940;19;20019;-70
2022/07/23 01:28:06;;;;;;;9.52;7.35;;;;;;;17.44;69.39;101070.44;7396237;19;20022;-70
2022/07/23 01:30:35;;;;;;;8.52;6.72;;;;;;;17.43;69.44;101061.63;7396335;19;20038;-70
2022/07/23 01:33:03;;;;;;;7.88;6.65;;;;;;;17.43;69.13;101064.28;7395336;19;20039;-70
2022/07/23 01:35:32;;;;;;;7.32;6.55;;;;;;;17.41;69.25;101058.19;7395732;19;20014;-69
2022/07/23 01:38:00;;;;;;;8.43;6.72;;;;;;;17.42;69.37;101059.03;7395592;19;20014;-69
2022/07/23 01:40:32;;;;;;;9.52;6.85;;;;;;;17.42;69.32;101057.25;7395953;19;20022;-70
2022/07/23 01:43:00;;;;;;;9.93;7.20;;;;;;;17.41;69.32;101058.19;7397114;19;20021;-70
2022/07/23 01:45:29;;;;;;;12.45;7.18;;;;;;;17.40;69.34;101052.94;7396971;19;20039;-70
2022/07/23 01:47:57;;;;;;;9.55;7.78;;;;;;;17.39;69.29;101049.44;7395779;19;20025;-70
2022/07/23 01:50:26;;;;;;;7.57;6.80;;;;;;;17.37;69.68;101050.44;7396388;19;20018;-67
2022/07/23 01:52:54;;;;;;;10.93;6.68;;;;;;;17.35;69.63;101061.13;7396331;19;20014;-70
2022/07/23 01:55:23;;;;;;;9.57;8.05;;;;;;;17.33;69.76;101060.31;7396086;19;20506;-69
2022/07/23 01:57:54;;;;;;;9.23;7.50;;;;;;;17.31;69.69;101064.81;7395523;19;20018;-70
2022/07/23 02:00:23;;;;;;;10.02;7.10;;;;;;;17.30;69.62;101060.47;7395645;19;20015;-69
2022/07/23 02:02:51;;;;;;;10.60;7.43;;;;;;;17.31;69.75;101067.47;7396322;19;20049;-70
2022/07/23 02:05:20;;;;;;;13.63;8.25;;;;;;;17.30;69.97;101068.44;7396207;19;20016;-69
2022/07/23 02:07:48;;;;;;;11.95;8.48;;;;;;;17.28;69.98;101072.94;7395313;19;20436;-70
2022/07/23 02:10:17;;;;;;;11.95;9.02;;;;;;;17.24;70.07;101071.34;7394499;19;20014;-69
2022/07/23 02:12:45;;;;;;;13.98;9.15;;;;;;;17.19;70.49;101068.03;7395725;19;20011;-69
2022/07/23 02:15:16;;;;;;;8.57;7.68;;;;;;;17.19;70.64;101065.38;7394255;19;20018;-69
2022/07/23 02:17:45;;;;;;;9.10;7.93;;;;;;;17.16;70.52;101058.44;7395189;19;20027;-69
2022/07/23 02:20:14;;;;;;;9.18;8.25;;;;;;;17.15;70.71;101061.13;7394039;19;20038;-69
2022/07/23 02:22:43;;;;;;;9.98;7.68;;;;;;;17.14;70.62;101062.09;7394897;19;20026;-69
2022/07/23 02:25:11;;;;;;;9.57;7.90;;;;;;;17.13;70.43;101068.31;7393328;19;20014;-69
2022/07/23 02:27:40;;;;;;;9.02;7.95;;;;;;;17.10;70.50;101064.00;7394163;19;20453;-69
2022/07/23 02:30:10;;;;;;;9.90;7.88;;;;;;;17.12;70.53;101074.53;7395135;19;20522;-69
2022/07/23 02:32:41;;;;;;;8.90;7.90;;;;;;;17.09;70.80;101063.13;7395379;19;20018;-69
2022/07/23 02:35:10;;;;;;;12.95;8.77;;;;;;;17.07;70.48;101059.69;7394682;19;20070;-69
2022/07/23 02:37:39;;;;;;;15.13;8.90;;;;;;;17.02;70.65;101067.00;7394661;19;20031;-69
2022/07/23 02:40:08;;;;;;;17.08;8.77;;;;;;;16.95;70.99;101070.84;7394185;19;20031;-69
2022/07/23 02:42:37;;;;;;;9.73;8.77;;;;;;;16.92;70.87;101065.66;7392898;19;20034;-69
2022/07/23 02:45:06;;;;;;;11.40;8.98;;;;;;;16.90;71.08;101067.50;7394788;19;20486;-69
2022/07/23 02:47:35;;;;;;;9.55;8.52;;;;;;;16.86;71.02;101055.31;7393871;19;20042;-69
2022/07/23 02:50:07;;;;;;;9.52;8.52;;;;;;;16.81;71.53;101046.66;7393259;19;20028;-69
2022/07/23 02:52:36;;;;;;;9.75;8.77;;;;;;;16.72;71.53;101048.81;7395129;19;20489;-69
2022/07/23 02:55:05;;;;;;;9.60;8.68;;;;;;;16.59;71.75;101045.81;7394777;19;20015;-69
2022/07/23 02:57:34;;;;;;;9.65;8.73;;;;;;;16.49;72.07;101048.91;7393651;19;20028;-69
2022/07/23 03:00:02;;;;;;;15.13;9.05;;;;;;;16.37;72.46;101037.88;7394225;19;20027;-69
2022/07/23 03:02:31;;;;;;;10.27;9.10;;;;;;;16.31;72.81;101037.28;7394505;19;20018;-69
2022/07/23 03:04:59;;;;;;;9.65;8.60;;;;;;;16.26;72.89;101040.13;7394114;19;20010;-69
2022/07/23 03:07:31;;;;;;;13.32;10.30;;;;;;;16.22;72.73;101042.03;7393778;19;20031;-69
2022/07/23 03:09:59;;;;;;;9.18;8.10;;;;;;;16.20;72.85;101045.66;7394913;19;20015;-69
2022/07/23 03:12:28;;;;;;;13.45;8.93;;;;;;;16.17;73.09;101059.88;7394494;19;20019;-69
2022/07/23 03:14:56;;;;;;;9.75;8.45;;;;;;;16.15;73.07;101074.09;7394067;19;20027;-69
2022/07/23 03:17:25;;;;;;;8.98;8.07;;;;;;;16.15;73.10;101080.28;7393480;19;20014;-69
2022/07/23 03:19:53;;;;;;;11.57;9.20;;;;;;;16.15;73.60;101085.56;7393467;19;20014;-69
2022/07/23 03:22:22;;;;;;;10.70;8.68;;;;;;;16.15;73.67;101100.56;7394150;19;20018;-69
2022/07/23 03:24:58;;;;;;;11.43;8.90;;;;;;;16.11;73.94;101116.59;7394106;19;20022;-69
2022/07/23 03:27:28;;;;;;;11.73;9.73;;;;;;;16.07;74.03;101114.97;7392975;19;20435;-69
2022/07/23 03:29:59;;;;;;;12.25;9.60;;;;;;;16.01;73.96;101099.34;7393797;19;20432;-69
2022/07/23 03:32:28;;;;;;;12.90;8.77;;;;;;;15.98;74.00;101094.16;7392260;19;20047;-69
2022/07/23 03:34:56;;;;;;;13.25;9.77;;;;;;;15.97;73.93;101103.00;7392727;19;20470;-69
2022/07/23 03:37:25;;;;;;;13.52;9.90;;;;;;;15.95;74.38;101099.59;7392822;19;20031;-69
2022/07/23 03:39:56;;;;;;;12.23;9.02;;;;;;;15.89;74.55;101095.38;7392833;19;20027;-69
2022/07/23 03:42:24;;;;;;;11.77;9.93;;;;;;;15.87;74.47;101094.59;7393833;19;20018;-69
2022/07/23 03:44:53;;;;;;;11.15;9.98;;;;;;;15.84;74.46;101091.19;7390903;19;20490;-69
2022/07/23 03:47:22;;;;;;;11.75;9.98;;;;;;;15.80;74.52;101087.75;7392740;19;20045;-68
2022/07/23 03:49:51;;;;;;;11.18;9.70;;;;;;;15.80;74.97;101104.47;7391367;19;20014;-69
2022/07/23 03:52:20;;;;;;;11.38;9.02;;;;;;;15.79;75.50;101097.47;7393356;19;20019;-69
2022/07/23 03:54:48;;;;;;;9.73;8.63;;;;;;;15.80;74.98;101087.75;7399297;19;20027;-69
2022/07/23 03:57:19;;;;;;;10.20;9.00;;;;;;;15.75;74.94;101072.06;7399808;19;20035;-68
2022/07/23 03:59:48;;;;;;;13.90;8.45;;;;;;;15.72;75.07;101064.25;7401018;19;20027;-69
2022/07/23 04:02:16;;;;;;;12.13;8.85;;;;;;;15.71;75.11;101075.75;7397346;19;20423;-68
2022/07/23 04:04:45;;;;;;;9.65;7.80;;;;;;;15.72;74.79;101069.53;7400355;19;20035;-69
2022/07/23 04:07:13;;;;;;;8.60;7.40;;;;;;;15.74;74.50;101064.19;7400368;19;20027;-68
2022/07/23 04:09:42;;;;;;;10.70;7.72;;;;;;;15.78;74.43;101063.13;7399809;19;20070;-69
2022/07/23 04:12:11;;;;;;;9.43;7.93;;;;;;;15.85;74.28;101077.03;7399987;19;20014;-69
2022/07/23 04:14:42;;;;;;;10.05;7.03;;;;;;;15.90;73.93;101072.44;7396902;19;20007;-69
2022/07/23 04:17:11;;;;;;;9.75;7.20;;;;;;;15.95;73.81;101083.69;7399679;19;20032;-70
2022/07/23 04:19:41;;;;;;;9.38;6.55;;;;;;;15.98;73.64;101110.03;7400708;19;20022;-70
2022/07/23 04:22:10;;;;;;;11.38;7.05;;;;;;;16.01;73.45;101133.75;7398438;19;20018;-69
2022/07/23 04:24:39;;;;;;;11.95;7.07;;;;;;;16.05;73.38;101105.34;7398856;19;20506;-70
2022/07/23 04:27:08;;;;;;;9.45;6.60;;;;;;;16.08;72.92;101066.41;7398732;19;20478;-69
2022/07/23 04:29:37;;;;;;;9.68;6.47;;;;;;;16.06;72.73;101068.28;7399437;19;20018;-70
2022/07/23 04:32:08;;;;;;;9.32;6.72;;;;;;;16.13;72.82;101082.97;7399506;19;20019;-69
2022/07/23 04:34:37;;;;;;;8.23;7.40;;;;;;;16.16;72.73;101070.53;7398828;19;20015;-69
2022/07/23 04:37:05;;;;;;;8.57;6.32;;;;;;;16.16;73.00;101102.31;7396016;19;20082;-67
2022/07/23 04:39:34;;;;;;;6.88;6.18;;;;;;;16.10;72.92;101088.38;7399157;19;20019;-69
2022/07/23 04:42:09;;;;;;;9.70;6.72;;;;;;;16.09;73.26;101088.44;7397375;19;20035;-68
2022/07/23 04:44:37;;;;;;;9.98;6.97;;;;;;;16.08;73.06;101066.41;7398549;19;20039;-68
2022/07/23 04:47:10;;;;;;;7.80;6.15;;;;;;;16.09;72.95;101069.94;7396754;19;20022;-68
2022/07/23 04:49:39;;;;;;;7.35;5.78;;;;;;;16.04;73.14;101091.28;7399329;19;20031;-68
2022/07/23 04:52:07;;;;;;;10.90;6.30;;;;;;;16.07;73.06;101093.78;7399294;19;20026;-69
2022/07/23 04:54:36;;;;;;;8.95;7.43;;;;;;;16.08;73.08;101068.19;7396097;19;20094;-69
2022/07/23 04:57:04;;;;;;;8.30;5.90;;;;;;;16.10;72.90;101082.25;7397806;19;20100;-69
2022/07/23 04:59:33;;;;;;;8.02;5.65;;;;;;;16.11;72.93;101092.75;7398622;19;20021;-69
2022/07/23 05:02:01;;;;;;;10.13;6.03;;;;;;;16.12;73.09;101090.97;7396866;19;20498;-69
2022/07/23 05:04:33;;;;;;;9.52;6.35;;;;;;;16.15;73.29;101100.56;7397542;19;20035;-70
2022/07/23 05:07:02;;;;;;;9.68;6.28;;;;;;;16.16;72.99;101086.41;7397266;19;20057;-68
2022/07/23 05:09:30;;;;;;;6.45;5.82;;;;;;;16.17;73.09;101089.00;7395883;19;20436;-69
2022/07/23 05:11:59;;;;;;;9.73;5.97;;;;;;;16.18;73.47;101119.00;7396399;19;20007;-69
2022/07/23 05:14:27;;;;;;;7.85;5.72;;;;;;;16.17;73.45;101112.81;7397882;19;20018;-69
2022/07/23 05:16:57;;;;;;;7.18;5.90;;;;;;;16.11;73.58;101116.59;7398474;19;20374;-69
2022/07/23 05:19:25;;;;;;;9.05;6.32;;;;;;;16.07;73.63;101108.81;7397911;19;20014;-69
2022/07/23 05:22:18;;;;;;;10.05;6.55;;;;;;;16.07;73.82;101112.31;7396308;19;20018;-69
2022/07/23 05:24:46;;;;;;;7.85;5.55;;;;;;;16.04;74.89;101130.13;7395910;19;20372;-69
2022/07/23 05:27:21;;;;;;;12.07;6.22;;;;;;;15.96;74.94;101125.09;7395751;19;20035;-69
2022/07/23 05:29:50;;;;;;;9.63;6.28;;;;;;;15.92;75.58;101121.72;7397222;19;20056;-69
2022/07/23 05:32:18;;;;;;;9.88;5.97;;;;;;;15.89;75.70;101128.91;7397306;19;20015;-69
2022/07/23 05:34:47;;;;;;;8.88;5.97;;;;;;;15.88;75.99;101133.31;7396943;19;20011;-68
2022/07/23 05:37:24;;;;;;;8.15;5.60;;;;;;;15.86;76.67;101129.00;7395449;19;20011;-69
2022/07/23 05:39:53;;;;;;;10.73;6.97;;;;;;;15.84;76.17;101133.53;7396785;19;20031;-69
2022/07/23 05:42:21;;;;;;;8.30;6.07;;;;;;;15.81;76.61;101150.34;7395384;19;20018;-69
2022/07/23 05:44:50;;;;;;;10.23;6.82;;;;;;;15.74;76.97;101135.59;7396555;19;20485;-69
2022/07/23 05:47:18;;;;;;;13.05;6.40;;;;;;;15.67;77.22;101136.75;7395153;19;20039;-69
2022/07/23 05:49:47;;;;;;;8.20;6.32;;;;;;;15.62;77.74;101129.00;7394963;19;20022;-69
2022/07/23 05:52:15;;;;;;;7.97;6.65;;;;;;;15.58;77.66;101149.41;7394484;19;20022;-69
2022/07/23 05:54:46;;;;;;;9.65;6.65;;;;;;;15.57;78.34;101158.25;7396156;19;20031;-69
2022/07/23 05:57:15;;;;;;;12.20;7.15;;;;;;;15.58;78.76;101141.47;7396346;19;20031;-69
2022/07/23 05:59:43;;;;;;;13.25;7.25;;;;;;;15.59;78.94;101119.38;7396014;19;20014;-69
2022/07/23 06:02:12;;;;;;;12.35;6.80;;;;;;;15.54;79.29;101107.25;7394814;19;20387;-69
2022/07/23 06:04:41;;;;;;;9.25;6.60;;;;;;;15.42;80.36;101088.28;7394691;19;20018;-69
2022/07/23 06:07:09;;;;;;;10.20;6.95;;;;;;;15.26;81.30;101087.94;7395888;19;20031;-69
2022/07/23 06:09:38;;;;;;;11.57;7.47;;;;;;;15.07;81.30;101106.25;7396172;19;20022;-69
2022/07/23 06:12:10;;;;;;;13.13;7.30;;;;;;;15.00;81.93;101125.88;7395290;19;20023;-69
2022/07/23 06:14:39;;;;;;;17.67;9.48;;;;;;;14.94;82.43;101121.66;7396311;19;20104;-69
2022/07/23 06:17:07;;;;;;;13.43;9.30;;;;;;;14.99;83.11;101117.06;7392389;19;20411;-69
2022/07/23 06:19:36;;;;;;;13.95;9.18;;;;;;;15.04;83.41;101111.66;7395354;19;20014;-69
2022/07/23 06:22:04;;;;;;;11.68;8.60;;;;;;;15.09;83.87;101115.00;7394208;19;20022;-69
2022/07/23 06:24:33;;;;;;;10.20;8.02;;;;;;;15.14;84.15;101123.63;7395020;19;20014;-69
2022/07/23 06:27:01;;;;;;;16.30;10.00;;;;;;;15.18;84.04;101127.03;7393965;19;20015;-69
2022/07/23 06:29:32;;;;;;;13.18;9.57;;;;;;;15.25;84.13;101136.47;7395122;19;20477;-69
2022/07/23 06:32:01;;;;;;;12.20;9.55;;;;;;;15.34;84.12;101135.25;7394990;19;20510;-69
2022/07/23 06:34:30;;;;;;;10.48;8.13;;;;;;;15.40;84.19;101124.47;7393331;19;20028;-69
2022/07/23 06:36:59;;;;;;;9.55;8.20;;;;;;;15.42;84.30;101112.06;7391856;19;20027;-68
2022/07/23 06:39:27;;;;;;;15.45;8.25;;;;;;;15.43;84.33;101103.22;7394640;19;20038;-69
2022/07/23 06:41:56;;;;;;;12.18;9.13;;;;;;;15.45;84.64;101117.22;7393480;19;20032;-69
2022/07/23 06:44:24;;;;;;;10.65;8.02;;;;;;;15.45;84.78;101116.38;7395052;19;20028;-69
2022/07/23 06:46:55;;;;;;;9.88;7.78;;;;;;;15.46;84.62;101121.59;7394878;19;20019;-69
2022/07/23 06:49:24;;;;;;;9.38;7.50;;;;;;;15.48;84.66;101132.16;7395643;19;20082;-70
2022/07/23 06:51:52;;;;;;;11.63;7.53;;;;;;;15.47;84.68;101115.41;7393188;19;20011;-70
2022/07/23 06:54:21;;;;;;;10.05;6.80;;;;;;;15.46;84.59;101123.41;7392945;19;20014;-69
2022/07/23 06:56:49;;;;;;;10.65;7.65;;;;;;;15.48;84.79;101127.72;7394293;19;20506;-71
2022/07/23 06:59:18;;;;;;;12.65;7.80;;;;;;;15.50;84.79;101121.50;7394936;19;20037;-69
2022/07/23 07:01:46;;;;;;;12.50;7.70;;;;;;;15.51;84.80;101115.31;7393943;19;20028;-69
2022/07/23 07:04:17;;;;;;;9.15;7.22;;;;;;;15.47;85.00;101115.41;7394289;19;20415;-69
2022/07/23 07:06:46;;;;;;;10.80;7.93;;;;;;;15.43;84.84;101119.09;7394858;19;20022;-70
2022/07/23 07:09:15;;;;;;;12.55;8.35;;;;;;;15.37;84.65;101107.88;7394743;19;20023;-69
2022/07/23 07:11:43;;;;;;;12.50;7.40;;;;;;;15.33;85.28;101096.53;7392928;19;20018;-69
2022/07/23 07:14:12;;;;;;;10.68;8.00;;;;;;;15.30;85.25;101107.22;7394233;19;20086;-69
2022/07/23 07:16:40;;;;;;;10.77;8.20;;;;;;;15.29;85.33;101095.78;7393537;19;20018;-70
2022/07/23 07:19:09;;;;;;;28.33;18.88;;;;;;;15.30;85.59;101096.63;7391974;19;20090;-69
2022/07/23 07:21:40;;;;;;;24.52;16.05;;;;;;;15.33;85.86;101104.47;7392620;19;20031;-69
2022/07/23 07:24:09;;;;;;;13.30;9.73;;;;;;;15.37;85.56;101106.09;7394122;19;20035;-69
2022/07/23 07:26:38;;;;;;;11.43;8.82;;;;;;;15.41;85.84;101099.75;7393094;19;20485;-70
2022/07/23 07:29:07;;;;;;;12.07;8.95;;;;;;;15.43;85.66;101082.06;7397778;19;20086;-69
2022/07/23 07:31:35;;;;;;;14.40;9.18;;;;;;;15.48;85.74;101064.25;7397925;19;20427;-69
2022/07/23 07:34:05;;;;;;;14.10;9.10;;;;;;;15.54;85.96;101062.28;7400495;19;20031;-69
2022/07/23 07:36:34;;;;;;;14.32;8.82;;;;;;;15.55;86.05;101046.34;7399052;19;20035;-69
2022/07/23 07:39:06;;;;;;;11.35;7.90;;;;;;;15.56;86.18;101031.38;7398063;19;20010;-69
2022/07/23 07:41:35;;;;;;;12.23;8.32;;;;;;;15.57;85.78;101046.28;7399581;19;20130;-69
2022/07/23 07:44:03;;;;;;;15.30;9.65;;;;;;;15.62;86.22;101070.81;7400139;19;20018;-70
2022/07/23 07:46:32;;;;;;;13.30;9.10;;;;;;;15.70;86.33;101071.38;7400099;19;20027;-69
2022/07/23 07:49:00;;;;;;;11.43;8.95;;;;;;;15.78;85.66;101081.66;7397266;19;20078;-69
2022/07/23 07:51:29;;;;;;;10.88;8.65;;;;;;;15.87;85.43;101093.69;7399645;19;20375;-68
2022/07/23 07:53:58;;;;;;;11.93;8.20;;;;;;;15.98;85.40;101090.66;7398100;19;20018;-69
2022/07/23 07:56:30;;;;;;;14.45;8.30;;;;;;;16.08;84.76;101084.94;7399919;19;20027;-69
2022/07/23 07:58:58;;;;;;;8.98;7.45;;;;;;;16.20;84.73;101091.53;7397830;19;20035;-70
2022/07/23 08:01:27;;;;;;;12.73;8.00;;;;;;;16.29;84.24;101096.47;7399996;19;20014;-69
2022/07/23 08:03:55;;;;;;;9.48;7.97;;;;;;;16.39;83.84;101089.00;7400569;19;20026;-68
2022/07/23 08:06:23;;;;;;;11.55;7.22;;;;;;;16.50;83.71;101082.41;7399762;19;20070;-69
2022/07/23 08:08:52;;;;;;;9.27;7.07;;;;;;;16.57;83.03;101078.59;7397337;19;20031;-70
2022/07/23 08:11:20;;;;;;;9.77;7.50;;;;;;;16.61;82.78;101078.38;7399843;19;20082;-70
2022/07/23 08:13:51;;;;;;;11.60;7.65;;;;;;;16.71;82.99;101084.16;7399468;19;20443;-70
2022/07/23 08:16:20;;;;;;;8.40;6.88;;;;;;;16.82;82.21;101082.84;7397476;19;20035;-69
2022/07/23 08:18:49;;;;;;;11.48;6.60;;;;;;;16.88;81.73;101090.53;7396857;19;20018;-69
2022/07/23 08:21:17;;;;;;;9.50;6.20;;;;;;;16.99;81.47;101098.91;7399443;19;20015;-70
2022/07/23 08:23:46;;;;;;;8.38;6.50;;;;;;;17.07;81.17;101117.13;7396439;19;20066;-69
2022/07/23 08:26:14;;;;;;;9.23;6.30;;;;;;;17.18;81.21;101136.09;7399237;19;20015;-70
2022/07/23 08:28:43;;;;;;;10.50;6.40;;;;;;;17.27;80.69;101134.84;7397186;19;20254;-69
2022/07/23 08:31:16;;;;;;;10.20;6.30;;;;;;;17.39;80.19;101136.09;7396717;19;20070;-70
2022/07/23 08:33:44;;;;;;;8.27;5.90;;;;;;;17.51;79.47;101137.34;7397307;19;20078;-69
2022/07/23 08:36:13;;;;;;;7.07;5.30;;;;;;;17.57;78.78;101127.31;7396732;19;20010;-69
2022/07/23 08:38:43;;;;;;;6.75;5.32;;;;;;;17.63;77.87;101128.84;7395868;19;20031;-70
2022/07/23 08:41:12;;;;;;;8.75;6.53;;;;;;;17.68;77.54;101129.50;7396108;19;20015;-70
2022/07/23 08:43:40;;;;;;;7.53;5.22;;;;;;;17.74;77.44;101128.31;7396332;19;20031;-70
2022/07/23 08:46:09;;;;;;;8.60;5.70;;;;;;;17.80;76.52;101135.16;7398834;19;20014;-70
2022/07/23 08:48:40;;;;;;;8.27;6.43;;;;;;;17.81;76.30;101135.09;7396334;19;20486;-69
2022/07/23 08:51:10;;;;;;;6.88;5.53;;;;;;;17.86;76.67;101133.09;7398270;19;20155;-70
2022/07/23 08:53:40;;;;;;;7.85;6.32;;;;;;;17.97;76.81;101129.97;7398287;19;20485;-69
2022/07/23 08:56:09;;;;;;;7.47;5.72;;;;;;;18.05;76.13;101119.84;7398430;19;20026;-68
2022/07/23 08:58:38;;;;;;;8.27;5.55;;;;;;;18.10;75.49;101111.66;7396316;19;20018;-69
2022/07/23 09:01:07;;;;;;;8.57;5.90;;;;;;;18.19;75.11;101134.28;7395707;19;20557;-68
2022/07/23 09:03:38;;;;;;;8.85;6.10;;;;;;;18.22;74.93;101128.78;7395722;19;20019;-69
2022/07/23 09:06:09;;;;;;;7.57;6.20;;;;;;;18.30;75.19;101126.66;7397770;19;20018;-69
2022/07/23 09:08:40;;;;;;;8.65;6.00;;;;;;;18.40;74.57;101122.59;7395932;19;20014;-69
2022/07/23 09:11:11;;;;;;;8.93;6.07;;;;;;;18.48;74.09;101127.53;7398524;19;20074;-70
2022/07/23 09:13:43;;;;;;;8.27;5.80;;;;;;;18.52;73.42;101136.22;7397230;19;20010;-70
2022/07/23 09:16:14;;;;;;;8.90;5.63;;;;;;;18.59;72.76;101148.28;7397740;19;20037;-69
2022/07/23 09:18:46;;;;;;;9.80;5.82;;;;;;;18.67;72.34;101137.28;7395428;19;20015;-70
2022/07/23 09:21:23;;;;;;;10.27;6.13;;;;;;;18.83;72.28;101145.31;7397433;19;20354;-70
2022/07/23 09:23:56;;;;;;;8.00;5.90;;;;;;;19.01;71.72;101133.81;7396830;19;20026;-70
2022/07/23 09:26:26;;;;;;;;;;;;;;;19.16;70.31;101147.28;7397698;19;20022;-70
2022/07/23 09:28:57;;;;;;;9.90;6.00;;;;;;;19.24;70.66;101152.19;7394939;19;19938;-70
2022/07/23 09:31:27;;;;;;;8.05;6.25;;;;;;;19.24;69.75;101153.03;7397199;19;20042;-70
2022/07/23 09:34:09;;;;;;;9.93;6.65;;;;;;;19.21;69.75;101155.88;7396435;19;20026;-71
2022/07/23 09:36:41;;;;;;;8.30;6.43;;;;;;;19.16;70.09;101155.25;7394396;19;20011;-70
2022/07/23 09:39:11;;;;;;;8.30;6.65;;;;;;;19.13;70.52;101158.03;7396234;19;20015;-70
2022/07/23 09:41:43;;;;;;;10.90;6.78;;;;;;;19.07;69.97;101158.34;7394009;19;20027;-70
2022/07/23 09:44:13;;;;;;;7.50;5.95;;;;;;;19.05;70.08;101153.13;7394215;19;20018;-69
2022/07/23 09:46:43;;;;;;;11.60;7.13;;;;;;;19.10;69.82;101164.38;7395815;19;20364;-69
2022/07/23 09:49:17;;;;;;;7.97;7.18;;;;;;;19.02;69.01;101164.78;7394424;19;20021;-69
2022/07/23 09:51:54;;;;;;;9.45;6.28;;;;;;;18.95;69.97;101159.84;7395276;19;20018;-69
2022/07/23 09:54:26;;;;;;;9.25;6.68;;;;;;;18.94;70.37;101158.97;7396837;19;20015;-69
2022/07/23 09:56:55;;;;;;;7.75;5.75;;;;;;;18.98;70.31;101157.03;7396294;19;20371;-69
2022/07/23 09:59:28;;;;;;;9.35;6.53;;;;;;;19.07;70.19;101169.88;7395616;19;20607;-68
2022/07/23 10:01:59;;;;;;;12.05;6.95;;;;;;;19.13;70.19;101168.69;7395632;19;20014;-69
2022/07/23 10:04:30;;;;;;;8.65;6.63;;;;;;;19.17;70.23;101175.56;7396403;19;20014;-69
2022/07/23 10:07:03;;;;;;;7.60;6.78;;;;;;;19.22;69.91;101168.19;7396132;19;20031;-69
2022/07/23 10:09:33;;;;;;;8.13;7.32;;;;;;;19.32;69.76;101174.78;7396612;19;20019;-69
2022/07/23 10:12:07;;;;;;;11.75;8.13;;;;;;;19.44;69.49;101178.59;7395575;19;20018;-69
2022/07/23 10:14:36;;;;;;;8.25;6.90;;;;;;;19.61;69.16;101180.38;7396336;19;20022;-69
2022/07/23 10:17:06;;;;;;;8.55;7.28;;;;;;;19.77;68.23;101169.78;7395269;19;20040;-69
2022/07/23 10:19:35;;;;;;;8.95;7.22;;;;;;;19.94;67.55;101174.22;7394921;19;20492;-69
2022/07/23 10:22:09;;;;;;;8.77;7.50;;;;;;;19.99;66.01;101168.63;7395127;19;20015;-68
2022/07/23 10:24:52;;;;;;;8.77;7.50;;;;;;;19.98;64.82;101172.25;7393715;19;20019;-68
2022/07/23 10:27:41;;;;;;;11.15;8.05;;;;;;;19.98;65.73;101175.78;7394537;19;20081;-68
2022/07/23 10:30:14;;;;;;;9.05;6.68;;;;;;;20.04;66.23;101189.69;7394344;19;20430;-69
2022/07/23 10:32:51;;;;;;;10.02;7.60;;;;;;;20.11;65.93;101197.28;7394925;19;20030;-68
2022/07/23 10:35:32;;;;;;;10.60;7.30;;;;;;;20.13;64.94;101190.06;7394186;19;20023;-69
2022/07/23 10:38:09;;;;;;;8.48;7.00;;;;;;;20.15;65.39;101185.50;7393726;19;20018;-67
2022/07/23 10:40:38;;;;;;;10.27;7.38;;;;;;;20.19;65.81;101180.84;7392767;19;20042;-67
2022/07/23 10:43:18;;;;;;;8.98;7.75;;;;;;;20.24;65.50;101176.13;7392308;19;20023;-68
2022/07/23 10:45:46;;;;;;;11.40;6.47;;;;;;;20.28;65.27;101177.69;7394379;19;20514;-67
2022/07/23 10:48:17;;;;;;;10.15;6.43;;;;;;;20.33;64.24;101166.78;7393552;19;20031;-68
2022/07/23 10:51:07;;;;;;;8.60;6.38;;;;;;;20.40;62.50;101168.16;7395500;19;20485;-69
2022/07/23 10:53:59;;;;;;;7.45;6.03;;;;;;;20.41;60.30;101169.88;7395120;19;20018;-68
2022/07/23 10:56:52;;;;;;;7.75;5.57;;;;;;;20.43;60.69;101175.09;7393361;19;20042;-65
2022/07/23 10:59:21;;;;;;;8.43;5.55;;;;;;;20.50;61.91;101179.16;7394738;19;20018;-69
2022/07/23 11:01:50;;;;;;;8.57;5.45;;;;;;;20.57;61.59;101185.84;7392363;19;20065;-66
2022/07/23 11:04:18;;;;;;;7.85;5.75;;;;;;;20.69;61.02;101184.28;7397229;19;20094;-68
2022/07/23 11:07:17;;;;;;;6.22;5.63;;;;;;;20.82;59.41;101187.97;7402033;19;20024;-68
2022/07/23 11:09:48;;;;;;;6.07;5.47;;;;;;;20.94;60.03;101189.09;7402616;19;20038;-68
2022/07/23 11:12:35;;;;;;;12.43;7.32;;;;;;;21.02;57.70;101185.13;7402623;19;20015;-68
2022/07/23 11:15:06;;;;;;;8.55;6.32;;;;;;;21.03;58.01;101184.16;7398939;19;20078;-68
2022/07/23 11:17:37;;;;;;;9.25;6.35;;;;;;;21.02;58.65;101182.47;7400369;19;20359;-69
2022/07/23 11:20:23;;;;;;;9.75;6.00;;;;;;;21.10;58.25;101182.84;7401120;19;20014;-68
2022/07/23 11:22:53;;;;;;;8.77;6.72;;;;;;;21.18;58.01;101175.28;7401052;19;20039;-70
2022/07/23 11:25:37;;;;;;;9.40;6.60;;;;;;;21.24;56.55;101174.88;7401832;19;20019;-68
2022/07/23 11:28:20;;;;;;;9.15;7.07;;;;;;;21.35;56.72;101173.41;7399875;19;20082;-69
2022/07/23 11:30:50;;;;;;;7.40;5.88;;;;;;;21.48;57.94;101169.88;7398184;19;20017;-69
2022/07/23 11:33:20;;;;;;;7.80;6.32;;;;;;;21.64;57.52;101172.47;7399648;19;20014;-68
2022/07/23 11:35:51;;;;;;;9.02;6.10;;;;;;;21.85;57.32;101166.78;7397410;19;20074;-68